createdAt,value
2023-05-13T00:00:37.755Z,2.50
2023-05-13T00:04:08.699Z,3.45
2023-05-13T00:07:13.731Z,3.13
2023-05-13T00:10:33.013Z,3.15
2023-05-13T00:13:49.839Z,3.20
2023-05-13T00:17:08.751Z,2.95
2023-05-13T00:20:12.744Z,3.80
2023-05-13T00:23:29.784Z,3.60
2023-05-13T00:26:33.874Z,3.05
2023-05-13T00:30:08.852Z,3.07
2023-05-13T00:33:12.625Z,4.10
2023-05-13T00:36:41.765Z,3.77
2023-05-13T00:39:45.770Z,3.35
2023-05-13T00:43:16.768Z,3.25
2023-05-13T00:46:37.041Z,3.55
2023-05-13T00:50:07.777Z,4.20
2023-05-13T00:53:23.854Z,3.93
2023-05-13T00:56:42.803Z,3.30
2023-05-13T00:59:58.806Z,3.90
2023-05-13T01:03:31.869Z,3.90
2023-05-13T01:06:48.897Z,3.80
2023-05-13T01:10:23.318Z,3.70
2023-05-13T01:13:38.840Z,3.57
2023-05-13T01:17:09.912Z,3.87
2023-05-13T01:20:26.999Z,3.65
2023-05-13T01:24:00.222Z,3.20
2023-05-13T01:27:27.935Z,3.90
2023-05-13T01:30:46.914Z,3.63
2023-05-13T01:34:14.932Z,3.20
2023-05-13T01:37:46.011Z,3.45
2023-05-13T01:41:15.898Z,3.80
2023-05-13T01:44:31.913Z,3.80
2023-05-13T01:47:48.145Z,4.10
2023-05-13T01:51:04.210Z,3.90
2023-05-13T01:54:21.003Z,3.87
2023-05-13T01:57:53.093Z,3.77
2023-05-13T02:01:09.190Z,4.27
2023-05-13T02:04:28.079Z,4.05
2023-05-13T02:07:43.985Z,4.10
2023-05-13T02:11:13.013Z,3.90
2023-05-13T02:14:33.136Z,3.87
2023-05-13T02:18:04.200Z,4.40
2023-05-13T02:21:20.067Z,3.93
2023-05-13T02:24:39.149Z,4.00
2023-05-13T02:27:55.097Z,4.15
2023-05-13T02:31:27.262Z,4.50
2023-05-13T02:34:31.086Z,4.37
2023-05-13T02:37:51.112Z,3.63
2023-05-13T02:41:07.185Z,3.97
2023-05-13T02:44:38.115Z,4.07
2023-05-13T02:48:13.154Z,4.00
2023-05-13T02:51:32.208Z,4.00
2023-05-13T02:54:48.078Z,4.00
2023-05-13T02:58:06.094Z,4.13
2023-05-13T03:01:22.236Z,3.93
2023-05-13T03:04:57.281Z,4.43
2023-05-13T03:08:13.263Z,3.93
2023-05-13T03:11:32.163Z,4.33
2023-05-13T03:14:36.200Z,4.50
2023-05-13T03:17:52.311Z,4.67
2023-05-13T03:21:24.319Z,4.57
2023-05-13T03:24:58.354Z,4.47
2023-05-13T03:28:14.292Z,4.10
2023-05-13T03:31:45.565Z,4.57
2023-05-13T03:35:01.486Z,4.47
2023-05-13T03:38:36.403Z,4.30
2023-05-13T03:41:52.347Z,4.60
2023-05-13T03:45:11.531Z,4.20
2023-05-13T03:48:42.426Z,4.87
2023-05-13T03:51:58.433Z,4.45
2023-05-13T03:55:27.447Z,4.90
2023-05-13T03:58:43.288Z,5.20
2023-05-13T04:01:59.456Z,5.70
2023-05-13T04:05:18.590Z,4.95
2023-05-13T04:08:22.400Z,4.25
2023-05-13T04:11:54.403Z,4.50
2023-05-13T04:15:10.413Z,5.17
2023-05-13T04:18:29.585Z,4.77
2023-05-13T04:21:33.417Z,5.33
2023-05-13T04:24:52.468Z,5.03
2023-05-13T04:28:09.449Z,5.10
2023-05-13T04:31:26.593Z,4.83
2023-05-13T04:34:42.489Z,5.20
2023-05-13T04:37:58.538Z,5.07
2023-05-13T04:41:14.553Z,5.13
2023-05-13T04:44:46.398Z,5.50
2023-05-13T04:48:14.504Z,5.30
2023-05-13T04:51:45.566Z,4.40
2023-05-13T04:55:01.604Z,5.50
2023-05-13T04:58:20.374Z,4.80
2023-05-13T05:01:52.563Z,5.20
2023-05-13T05:05:11.626Z,5.07
2023-05-13T05:08:27.559Z,5.50
2023-05-13T05:11:43.667Z,5.00
2023-05-13T05:14:59.725Z,6.40
2023-05-13T05:18:29.713Z,6.07
2023-05-13T05:21:45.696Z,6.30
2023-05-13T05:25:01.613Z,6.05
2023-05-13T05:28:18.751Z,6.10
2023-05-13T05:31:37.673Z,6.70
2023-05-13T05:35:09.668Z,7.10
2023-05-13T05:38:38.681Z,6.73
2023-05-13T05:41:54.715Z,7.25
2023-05-13T05:45:13.749Z,6.55
2023-05-13T05:48:29.800Z,8.00
2023-05-13T05:52:02.870Z,6.70
2023-05-13T05:55:18.716Z,5.75
2023-05-13T05:58:50.821Z,6.20
2023-05-13T06:02:06.727Z,7.25
2023-05-13T06:05:25.805Z,7.70
2023-05-13T06:08:57.823Z,6.40
2023-05-13T06:12:13.861Z,7.30
2023-05-13T06:15:17.868Z,6.45
2023-05-13T06:18:33.828Z,7.33
2023-05-13T06:21:37.788Z,6.63
2023-05-13T06:25:10.914Z,6.80
2023-05-13T06:28:14.871Z,7.80
2023-05-13T06:31:30.859Z,6.60
2023-05-13T06:34:46.940Z,6.67
2023-05-13T06:38:02.908Z,6.10
2023-05-13T06:41:35.268Z,6.07
2023-05-13T06:44:54.862Z,6.33
2023-05-13T06:47:59.151Z,6.00
2023-05-13T06:51:14.963Z,5.50
2023-05-13T06:54:18.982Z,5.80
2023-05-13T06:57:51.031Z,5.80
2023-05-13T07:01:07.034Z,7.03
2023-05-13T07:04:23.048Z,6.17
2023-05-13T07:07:27.052Z,5.60
2023-05-13T07:10:43.948Z,6.00
2023-05-13T07:14:04.060Z,6.27
2023-05-13T07:17:35.126Z,5.15
2023-05-13T07:20:38.963Z,5.77
2023-05-13T07:23:58.035Z,5.50
2023-05-13T07:27:02.093Z,6.00
2023-05-13T07:30:35.020Z,5.70
2023-05-13T07:33:39.014Z,5.17
2023-05-13T07:36:55.085Z,5.23
2023-05-13T07:39:59.099Z,5.37
2023-05-13T07:43:15.102Z,4.80
2023-05-13T07:46:33.075Z,5.37
2023-05-13T07:49:52.043Z,5.35
2023-05-13T07:52:56.129Z,4.77
2023-05-13T07:56:12.136Z,5.03
2023-05-13T07:59:16.181Z,4.60
2023-05-13T08:02:48.365Z,4.37
2023-05-13T08:06:09.146Z,5.75
2023-05-13T08:09:13.108Z,5.00
2023-05-13T08:12:32.122Z,4.23
2023-05-13T08:15:36.253Z,4.70
2023-05-13T08:19:08.279Z,4.50
2023-05-13T08:22:12.192Z,5.47
2023-05-13T08:25:31.268Z,5.45
2023-05-13T08:28:35.252Z,5.00
2023-05-13T08:31:51.283Z,4.67
2023-05-13T08:35:11.473Z,5.07
2023-05-13T08:38:28.333Z,4.53
2023-05-13T08:41:44.357Z,4.23
2023-05-13T08:45:15.296Z,4.37
2023-05-13T08:48:31.263Z,4.05
2023-05-13T08:52:00.301Z,3.90
2023-05-13T08:55:16.319Z,4.45
2023-05-13T08:58:47.286Z,4.30
2023-05-13T09:02:03.456Z,4.10
2023-05-13T09:05:36.898Z,3.97
2023-05-13T09:09:03.326Z,3.93
2023-05-13T09:12:19.334Z,3.73
2023-05-13T09:15:35.329Z,4.33
2023-05-13T09:18:54.549Z,3.45
2023-05-13T09:22:10.378Z,3.20
2023-05-13T09:25:41.438Z,3.00
2023-05-13T09:28:45.421Z,3.53
2023-05-13T09:32:14.442Z,3.10
2023-05-13T09:35:36.563Z,3.00
2023-05-13T09:39:07.433Z,3.60
2023-05-13T09:42:27.546Z,3.27
2023-05-13T09:45:46.442Z,3.37
2023-05-13T09:48:50.456Z,3.53
2023-05-13T09:52:21.529Z,3.90
2023-05-13T09:55:25.427Z,3.30
2023-05-13T09:58:57.636Z,3.27
2023-05-13T10:02:13.503Z,3.30
2023-05-13T10:05:41.581Z,3.00
2023-05-13T10:08:57.613Z,3.43
2023-05-13T10:12:28.632Z,2.80
2023-05-13T10:15:45.498Z,3.15
2023-05-13T10:19:16.660Z,3.30
2023-05-13T10:28:53.557Z,2.95
2023-05-13T10:32:22.755Z,3.00
2023-05-13T10:57:46.744Z,2.80
2023-05-13T11:04:23.688Z,2.90
2023-05-13T14:04:54.185Z,2.10
2023-05-13T16:24:14.738Z,2.35
2023-05-13T16:33:54.746Z,2.05
2023-05-13T16:43:47.668Z,2.60
2023-05-13T16:46:51.714Z,2.37
2023-05-13T16:50:23.990Z,2.20
2023-05-13T16:53:27.942Z,2.80
2023-05-13T16:56:43.816Z,2.70
2023-05-13T17:00:03.700Z,2.25
2023-05-13T17:03:22.978Z,2.40
2023-05-13T17:06:26.780Z,2.43
2023-05-13T17:09:54.788Z,2.37
2023-05-13T17:12:58.856Z,2.53
2023-05-13T17:16:30.897Z,3.20
2023-05-13T17:19:34.798Z,3.17
2023-05-13T17:22:53.847Z,2.65
2023-05-13T17:25:57.921Z,2.57
2023-05-13T17:29:14.946Z,2.77
2023-05-13T17:32:32.917Z,2.70
2023-05-13T17:35:48.886Z,2.67
2023-05-13T17:39:04.919Z,2.70
2023-05-13T17:42:23.918Z,3.10
2023-05-13T17:45:27.902Z,2.70
2023-05-13T17:49:00.035Z,2.80
2023-05-13T17:52:04.064Z,2.87
2023-05-13T17:55:35.870Z,2.57
2023-05-13T17:58:51.944Z,2.60
2023-05-13T18:02:07.908Z,2.50
2023-05-13T18:05:38.035Z,2.45
2023-05-13T18:08:42.185Z,2.33
2023-05-13T18:12:00.964Z,2.63
2023-05-13T18:15:05.002Z,2.57
2023-05-13T18:18:32.970Z,2.53
2023-05-13T18:21:51.069Z,2.70
2023-05-13T18:25:10.003Z,2.67
2023-05-13T18:28:13.803Z,2.73
2023-05-13T18:31:30.025Z,2.55
2023-05-13T18:34:34.071Z,2.70
2023-05-13T18:38:05.989Z,2.60
2023-05-13T18:41:10.165Z,2.70
2023-05-13T18:44:29.017Z,2.93
2023-05-13T18:47:33.196Z,2.50
2023-05-13T18:50:49.047Z,2.83
2023-05-13T18:54:09.227Z,2.97
2023-05-13T18:57:40.109Z,3.00
2023-05-13T19:00:44.102Z,3.15
2023-05-13T19:04:03.380Z,3.20
2023-05-13T19:07:07.096Z,2.57
2023-05-13T19:10:40.204Z,2.70
2023-05-13T19:13:55.224Z,2.95
2023-05-13T19:17:11.253Z,2.60
2023-05-13T19:20:15.139Z,2.45
2023-05-13T19:23:31.173Z,3.03
2023-05-13T19:26:48.437Z,2.80
2023-05-13T19:30:07.436Z,2.67
2023-05-13T19:33:14.393Z,3.05
2023-05-13T19:36:36.415Z,2.90
2023-05-13T19:39:40.272Z,3.23
2023-05-13T19:43:10.467Z,3.43
2023-05-13T19:46:29.726Z,3.30
2023-05-13T19:49:51.425Z,4.10
2023-05-13T19:53:07.356Z,3.70
2023-05-13T19:56:38.319Z,4.10
2023-05-13T19:59:56.561Z,3.57
2023-05-13T20:03:03.494Z,4.20
2023-05-13T20:06:34.463Z,4.03
2023-05-13T20:09:38.390Z,4.00
2023-05-13T20:12:57.582Z,4.27
2023-05-13T20:16:17.430Z,4.53
2023-05-13T20:19:36.598Z,4.20
2023-05-13T20:22:40.472Z,4.40
2023-05-13T20:26:12.488Z,4.83
2023-05-13T20:29:16.201Z,4.10
2023-05-13T20:32:49.257Z,4.37
2023-05-13T20:36:10.685Z,4.57
2023-05-13T20:39:33.531Z,4.53
2023-05-13T20:42:38.436Z,4.77
2023-05-13T20:45:55.738Z,4.40
2023-05-13T20:49:16.511Z,4.53
2023-05-13T20:52:38.573Z,4.80
2023-05-13T20:55:42.453Z,4.23
2023-05-13T20:59:01.538Z,3.87
2023-05-13T21:02:05.347Z,4.37
2023-05-13T21:05:35.637Z,4.10
2023-05-13T21:08:39.521Z,4.90
2023-05-13T21:11:58.779Z,4.90
2023-05-13T21:15:02.711Z,4.60
2023-05-13T21:18:21.638Z,4.90
2023-05-13T21:21:39.562Z,4.40
2023-05-13T21:24:55.542Z,4.33
2023-05-13T21:27:59.672Z,4.50
2023-05-13T21:31:18.740Z,4.50
2023-05-13T21:34:34.553Z,5.03
2023-05-13T21:38:12.276Z,4.03
2023-05-13T21:41:10.689Z,4.50
2023-05-13T21:44:28.242Z,3.80
2023-05-13T21:47:32.924Z,3.80
2023-05-13T21:50:52.720Z,4.00
2023-05-13T21:54:09.601Z,4.20
2023-05-13T21:57:26.692Z,4.13
2023-05-13T22:00:43.744Z,4.07
2023-05-13T22:04:02.743Z,4.25
2023-05-13T22:07:06.691Z,4.40
2023-05-13T22:10:36.555Z,4.23
2023-05-13T22:13:40.730Z,4.53
2023-05-13T22:17:11.975Z,4.50
2023-05-13T22:20:15.764Z,3.90
2023-05-13T22:23:31.719Z,3.90
2023-05-13T22:26:51.836Z,4.25
2023-05-13T22:30:22.934Z,4.45
2023-05-13T22:33:38.770Z,4.80
2023-05-13T22:36:57.864Z,4.23
2023-05-13T22:40:13.805Z,4.40
2023-05-13T22:43:42.902Z,4.70
2023-05-13T22:46:46.918Z,4.40
2023-05-13T22:50:03.866Z,4.70
2023-05-13T22:53:07.779Z,4.57
2023-05-13T22:56:23.897Z,4.73
2023-05-13T22:59:43.797Z,4.70
2023-05-13T23:03:02.895Z,4.30
2023-05-13T23:06:06.994Z,4.73
2023-05-13T23:09:25.922Z,3.60
2023-05-13T23:12:29.974Z,4.75
2023-05-13T23:16:01.866Z,4.10
2023-05-13T23:19:06.055Z,4.27
2023-05-13T23:22:25.074Z,4.20
2023-05-13T23:25:28.882Z,3.80
2023-05-13T23:28:47.902Z,3.80
2023-05-13T23:32:08.082Z,4.15
2023-05-13T23:35:39.058Z,4.07
2023-05-13T23:38:43.192Z,3.70
2023-05-13T23:41:59.186Z,4.87
2023-05-13T23:45:03.150Z,4.10
2023-05-13T23:48:37.984Z,4.50
2023-05-13T23:51:42.110Z,4.30
2023-05-13T23:55:13.091Z,3.80
2023-05-13T23:58:17.109Z,4.00
